Time;durP1;ratioP1;P1;durP2;ratioP2;P2;SDS_P1;SDS_P2;PMS_P1;PMS_P2;Temp;Humidity;BMP_temperature;BMP_pressure;BME280_temperature;BME280_humidity;BME280_pressure;Samples;Min_cycle;Max_cycle;Signal;HPM_P1;HPM_P2
2021/09/08 00:01:58;;;;;;;9.68;8.77;;;;;;;18.97;61.56;102201.00;6186888;28;20229;-47
2021/09/08 00:05:20;;;;;;;11.95;8.63;;;;;;;18.87;62.04;102186.28;6195703;28;20229;-48
2021/09/08 00:08:40;;;;;;;10.07;9.18;;;;;;;18.86;61.90;102189.81;6178985;28;20611;-49
2021/09/08 00:12:05;;;;;;;10.88;9.65;;;;;;;18.74;62.50;102190.91;6189066;28;20320;-48
2021/09/08 00:15:26;;;;;;;11.02;9.40;;;;;;;18.81;62.38;102183.78;6188464;28;20226;-51
2021/09/08 00:18:47;;;;;;;10.23;8.30;;;;;;;18.93;61.65;102182.63;6179961;28;20716;-48
2021/09/08 00:22:08;;;;;;;9.63;8.52;;;;;;;18.80;62.24;102180.25;6181575;28;20237;-47
2021/09/08 00:25:29;;;;;;;10.82;9.73;;;;;;;18.91;61.57;102176.53;6183641;28;20234;-51
2021/09/08 00:28:52;;;;;;;10.25;9.27;;;;;;;18.67;62.25;102176.13;6171079;28;20226;-51
2021/09/08 00:32:12;;;;;;;9.75;8.82;;;;;;;18.60;62.70;102170.09;6179176;28;20237;-49
2021/09/08 00:35:34;;;;;;;9.75;8.85;;;;;;;18.56;62.49;102171.06;6189175;28;20229;-47
2021/09/08 00:38:58;;;;;;;10.40;8.68;;;;;;;18.51;62.46;102175.56;6177831;28;20234;-51
2021/09/08 00:42:19;;;;;;;9.27;8.48;;;;;;;18.47;62.54;102168.59;6180561;28;20233;-53
2021/09/08 00:45:43;;;;;;;9.23;8.32;;;;;;;18.27;63.10;102177.78;6194518;28;20610;-48
2021/09/08 00:49:07;;;;;;;8.68;7.57;;;;;;;18.30;62.73;102168.97;6179112;28;20238;-48
2021/09/08 00:52:29;;;;;;;9.70;8.80;;;;;;;18.62;61.43;102170.06;6180108;28;20234;-51
2021/09/08 00:55:52;;;;;;;9.93;8.30;;;;;;;18.47;61.89;102171.25;6190280;28;20229;-47
2021/09/08 00:59:15;;;;;;;9.52;8.63;;;;;;;18.52;61.71;102161.47;6175549;28;20242;-46
2021/09/08 01:02:40;;;;;;;9.57;8.63;;;;;;;18.33;62.46;102168.03;6177051;28;20225;-49
2021/09/08 01:06:01;;;;;;;10.18;8.10;;;;;;;18.15;63.17;102162.22;6185490;28;20341;-49
2021/09/08 01:09:25;;;;;;;8.68;7.88;;;;;;;18.07;63.13;102161.50;6175293;28;20615;-50
2021/09/08 01:12:48;;;;;;;9.73;8.77;;;;;;;18.25;62.69;102161.13;6182092;28;20237;-52
2021/09/08 01:16:11;;;;;;;9.40;7.57;;;;;;;18.05;63.65;102152.75;6189118;28;20316;-49
2021/09/08 01:19:34;;;;;;;10.43;8.50;;;;;;;18.27;62.85;102159.34;6178024;28;20230;-51
2021/09/08 01:22:57;;;;;;;9.30;8.35;;;;;;;18.09;63.26;102154.44;6181379;28;20572;-52
2021/09/08 01:26:19;;;;;;;10.07;9.13;;;;;;;17.96;63.50;102148.53;6182680;28;20242;-51
2021/09/08 01:29:40;;;;;;;11.32;7.90;;;;;;;18.21;62.60;102148.91;6175850;28;20603;-50
2021/09/08 01:33:01;;;;;;;8.65;7.80;;;;;;;17.90;63.74;102152.13;6181791;28;20233;-48
2021/09/08 01:36:22;;;;;;;8.30;7.53;;;;;;;18.06;62.96;102150.06;6187309;28;20316;-51
2021/09/08 01:39:45;;;;;;;9.88;8.88;;;;;;;18.09;62.83;102146.53;6171680;28;20248;-51
2021/09/08 01:43:06;;;;;;;8.63;7.55;;;;;;;18.00;63.36;102137.00;6181144;28;20225;-48
2021/09/08 01:46:28;;;;;;;9.27;8.50;;;;;;;17.78;64.18;102133.03;6176428;28;20226;-47
2021/09/08 01:49:48;;;;;;;9.23;8.30;;;;;;;17.80;63.69;102132.09;6176376;28;20237;-48
2021/09/08 01:53:10;;;;;;;9.02;7.68;;;;;;;17.61;64.49;102138.59;6176655;28;20321;-49
2021/09/08 01:56:32;;;;;;;8.20;7.43;;;;;;;17.77;63.81;102133.91;6191389;28;20242;-48
2021/09/08 01:59:53;;;;;;;11.95;8.18;;;;;;;17.60;64.55;102135.09;6175499;28;20229;-49
2021/09/08 02:03:15;;;;;;;9.60;8.65;;;;;;;17.66;64.22;102129.72;6172737;28;20245;-47
2021/09/08 02:06:47;;;;;;;9.95;8.55;;;;;;;17.57;64.30;102135.13;6187595;28;20237;-49
2021/09/08 02:10:08;;;;;;;8.98;7.45;;;;;;;17.17;65.78;102137.56;6183161;28;20312;-50
2021/09/08 02:13:32;;;;;;;11.55;7.88;;;;;;;17.00;66.18;102136.06;6176224;28;20254;-49
2021/09/08 02:16:53;;;;;;;9.98;8.05;;;;;;;16.96;66.58;102141.38;6187267;28;20238;-53
2021/09/08 02:20:14;;;;;;;8.38;7.63;;;;;;;17.30;65.65;102137.34;6187821;28;20233;-51
2021/09/08 02:23:35;;;;;;;8.70;7.63;;;;;;;17.57;64.79;102142.19;6178889;28;20233;-46
2021/09/08 02:26:56;;;;;;;9.27;8.27;;;;;;;17.41;65.12;102141.53;6190786;28;20222;-48
2021/09/08 02:30:18;;;;;;;10.90;8.85;;;;;;;17.46;64.89;102137.09;6182671;28;20226;-46
2021/09/08 02:33:39;;;;;;;8.20;7.50;;;;;;;16.97;66.48;102144.00;6160517;28;20228;-49
2021/09/08 02:37:00;;;;;;;9.60;8.60;;;;;;;16.87;66.60;102145.88;6186416;28;20229;-52
2021/09/08 02:40:22;;;;;;;9.23;8.35;;;;;;;17.06;66.13;102142.97;6192118;28;20842;-47
2021/09/08 02:43:43;;;;;;;8.18;7.47;;;;;;;16.93;66.23;102142.31;6178571;28;20320;-49
2021/09/08 02:47:05;;;;;;;8.43;7.53;;;;;;;17.10;65.96;102135.03;6187369;28;20230;-50
2021/09/08 02:50:26;;;;;;;7.30;6.70;;;;;;;17.02;66.26;102142.19;6178465;28;20230;-46
2021/09/08 02:53:47;;;;;;;9.48;8.45;;;;;;;16.99;66.27;102136.94;6173079;28;20241;-50
2021/09/08 02:57:08;;;;;;;9.68;8.68;;;;;;;16.98;66.42;102126.44;6185921;28;20238;-48
2021/09/08 03:00:29;;;;;;;8.85;8.05;;;;;;;17.13;65.52;102129.69;6176989;28;20648;-53
2021/09/08 03:03:51;;;;;;;9.02;8.13;;;;;;;17.15;65.44;102126.19;6180248;28;20622;-45
2021/09/08 03:07:12;;;;;;;8.60;7.50;;;;;;;17.25;65.03;102125.13;6181124;28;20234;-49
2021/09/08 03:10:35;;;;;;;8.73;7.77;;;;;;;17.08;65.68;102118.38;6185105;28;20604;-49
2021/09/08 03:13:56;;;;;;;14.70;13.33;;;;;;;17.09;66.16;102122.75;6180053;28;20225;-49
2021/09/08 03:17:17;;;;;;;15.20;13.77;;;;;;;17.15;66.13;102110.38;6174548;28;20229;-52
2021/09/08 03:20:39;;;;;;;11.20;10.20;;;;;;;16.90;66.44;102110.75;6192910;28;21508;-48
2021/09/08 03:24:00;;;;;;;16.50;15.10;;;;;;;17.03;65.75;102104.41;6172529;28;20315;-47
2021/09/08 03:27:21;;;;;;;10.13;9.23;;;;;;;16.91;65.78;102105.47;6183823;28;20222;-49
2021/09/08 03:30:42;;;;;;;9.07;8.17;;;;;;;16.97;65.81;102101.91;6178848;28;20525;-46
2021/09/08 03:34:03;;;;;;;9.53;7.87;;;;;;;17.10;65.53;102102.59;6173674;28;20534;-47
2021/09/08 03:37:26;;;;;;;9.40;8.23;;;;;;;17.18;65.24;102102.47;6182130;28;20246;-47
2021/09/08 03:40:46;;;;;;;9.57;8.53;;;;;;;17.01;65.10;102098.31;6193410;28;20226;-48
2021/09/08 03:44:07;;;;;;;10.07;9.07;;;;;;;17.08;64.82;102094.69;6180336;28;20691;-52
2021/09/08 03:47:28;;;;;;;8.77;7.90;;;;;;;16.91;65.75;102094.09;6173361;28;20233;-50
2021/09/08 03:50:50;;;;;;;10.33;9.23;;;;;;;17.00;65.29;102090.44;6194533;28;20623;-49
2021/09/08 03:54:12;;;;;;;10.17;9.03;;;;;;;17.04;65.11;102093.03;6170810;28;20237;-49
2021/09/08 03:57:33;;;;;;;8.98;8.18;;;;;;;16.82;66.01;102091.59;6170334;28;20509;-50
2021/09/08 04:00:54;;;;;;;11.18;9.38;;;;;;;16.88;65.48;102094.13;6194063;28;20315;-47
2021/09/08 04:04:15;;;;;;;8.40;7.05;;;;;;;17.01;65.08;102092.19;6178812;28;21106;-49
2021/09/08 04:07:39;;;;;;;13.20;8.80;;;;;;;16.92;65.29;102085.28;6184549;28;20540;-48
2021/09/08 04:11:01;;;;;;;8.43;7.67;;;;;;;16.80;66.11;102088.94;6185160;28;20234;-50
2021/09/08 04:14:22;;;;;;;10.93;8.50;;;;;;;17.03;65.23;102091.25;6181705;28;20233;-50
2021/09/08 04:17:43;;;;;;;10.07;9.07;;;;;;;16.58;66.73;102093.66;6181814;28;20242;-49
2021/09/08 04:21:04;;;;;;;11.37;8.73;;;;;;;16.67;66.51;102098.78;6184958;28;20237;-46
2021/09/08 04:24:25;;;;;;;9.57;8.57;;;;;;;16.73;66.42;102090.81;6174383;28;20230;-51
2021/09/08 04:27:47;;;;;;;10.23;7.67;;;;;;;16.69;65.81;102089.13;6181182;28;20226;-48
2021/09/08 04:31:08;;;;;;;8.87;8.07;;;;;;;16.72;65.46;102088.19;6192969;28;20547;-48
2021/09/08 04:34:29;;;;;;;8.63;7.83;;;;;;;16.30;66.84;102082.63;6179106;28;20229;-47
2021/09/08 04:37:50;;;;;;;11.17;9.30;;;;;;;16.66;66.18;102086.53;6185185;28;20233;-52
2021/09/08 04:41:10;;;;;;;10.17;9.17;;;;;;;16.49;66.65;102083.25;6185445;28;20252;-53
2021/09/08 04:44:32;;;;;;;10.57;9.50;;;;;;;16.53;66.67;102080.56;6177202;28;20233;-47
2021/09/08 04:47:53;;;;;;;11.07;8.53;;;;;;;16.22;67.92;102081.84;6180749;28;20229;-49
2021/09/08 04:51:14;;;;;;;10.77;9.77;;;;;;;16.26;67.54;102084.41;6192544;28;20238;-46
2021/09/08 04:54:35;;;;;;;9.93;8.93;;;;;;;16.18;67.62;102091.53;6167132;28;20620;-46
2021/09/08 04:57:57;;;;;;;10.03;8.93;;;;;;;16.41;67.31;102083.34;6181657;28;20232;-50
2021/09/08 05:01:19;;;;;;;13.10;9.30;;;;;;;16.33;67.30;102088.72;6178738;28;20230;-54
2021/09/08 05:04:40;;;;;;;10.80;9.70;;;;;;;16.31;67.69;102095.75;6172211;28;20604;-54
2021/09/08 05:08:01;;;;;;;11.47;9.93;;;;;;;16.52;67.08;102091.13;6167514;28;20755;-50
2021/09/08 05:11:22;;;;;;;10.50;9.40;;;;;;;16.69;66.32;102091.75;6184904;28;20254;-48
2021/09/08 05:14:43;;;;;;;11.50;10.33;;;;;;;16.92;65.47;102094.06;6173362;28;20233;-48
2021/09/08 05:18:05;;;;;;;12.20;10.20;;;;;;;16.76;66.33;102099.56;6177920;28;20237;-48
2021/09/08 05:21:26;;;;;;;18.57;11.67;;;;;;;16.86;66.24;102085.38;6186738;28;20237;-52
2021/09/08 05:24:47;;;;;;;12.27;10.97;;;;;;;16.84;65.68;102103.81;6181273;28;20229;-53
2021/09/08 05:28:09;;;;;;;11.80;10.63;;;;;;;17.02;65.43;102100.06;6176087;28;20226;-51
2021/09/08 05:31:29;;;;;;;11.10;9.57;;;;;;;17.05;65.53;102094.75;6187226;28;20659;-47
2021/09/08 05:34:53;;;;;;;14.70;10.40;;;;;;;17.02;64.99;102094.81;6169246;28;20229;-51
2021/09/08 05:38:14;;;;;;;14.70;11.57;;;;;;;16.57;66.83;102102.44;6174339;28;20238;-46
2021/09/08 05:41:35;;;;;;;13.27;11.33;;;;;;;16.06;68.72;102096.94;6173107;28;20238;-51
2021/09/08 05:44:56;;;;;;;14.03;11.40;;;;;;;16.51;67.54;102099.88;6166064;28;20519;-49
2021/09/08 05:48:16;;;;;;;12.87;11.23;;;;;;;16.51;67.76;102108.63;6177328;28;20329;-52
2021/09/08 05:51:40;;;;;;;15.83;12.73;;;;;;;16.44;67.51;102106.09;6178638;28;20525;-51
2021/09/08 05:55:01;;;;;;;12.68;10.75;;;;;;;16.88;66.56;102102.88;6175169;28;20244;-50
2021/09/08 05:58:21;;;;;;;15.00;12.50;;;;;;;17.31;65.20;102104.84;6172870;28;20237;-49
2021/09/08 06:01:42;;;;;;;15.83;13.53;;;;;;;17.36;64.89;102103.91;6181149;28;20237;-54
2021/09/08 06:05:04;;;;;;;12.70;11.30;;;;;;;17.50;64.19;102108.03;6172065;28;20825;-52
2021/09/08 06:08:28;;;;;;;16.27;12.73;;;;;;;17.56;63.69;102107.06;6162396;28;20238;-52
2021/09/08 06:11:49;;;;;;;11.48;10.38;;;;;;;17.69;63.46;102105.94;6179496;28;20225;-47
2021/09/08 06:15:11;;;;;;;13.03;11.63;;;;;;;17.77;63.33;102104.94;6170462;28;20241;-51
2021/09/08 06:18:32;;;;;;;15.27;12.47;;;;;;;17.64;63.49;102104.28;6161421;28;20250;-50
2021/09/08 06:21:54;;;;;;;12.47;11.27;;;;;;;17.59;63.83;102111.41;6185370;28;20631;-48
2021/09/08 06:25:16;;;;;;;14.02;11.90;;;;;;;17.75;63.11;102107.59;6181665;28;20515;-50
2021/09/08 06:28:38;;;;;;;13.00;10.90;;;;;;;17.75;63.08;102102.31;6163132;28;20238;-46
2021/09/08 06:31:59;;;;;;;14.13;12.83;;;;;;;17.79;63.05;102098.72;6175274;28;20230;-47
2021/09/08 06:35:20;;;;;;;14.93;13.50;;;;;;;18.02;62.42;102105.38;6176209;28;20230;-52
2021/09/08 06:38:41;;;;;;;16.80;13.40;;;;;;;18.06;62.78;102096.50;6160368;28;20238;-48
2021/09/08 06:42:04;;;;;;;14.90;13.40;;;;;;;18.17;61.73;102105.06;6170950;28;20233;-50
2021/09/08 06:45:26;;;;;;;19.05;15.05;;;;;;;18.18;61.64;102104.13;6179772;28;20260;-48
2021/09/08 06:48:47;;;;;;;14.43;12.67;;;;;;;18.29;61.67;102099.53;6169471;28;20233;-52
2021/09/08 06:52:08;;;;;;;17.42;13.63;;;;;;;18.24;61.58;102097.88;6173944;28;20273;-48
2021/09/08 06:55:29;;;;;;;14.00;11.57;;;;;;;18.57;61.27;102087.50;6184279;28;20867;-51
2021/09/08 06:58:52;;;;;;;17.10;13.88;;;;;;;18.62;60.92;102090.91;6174829;28;20655;-48
2021/09/08 07:02:13;;;;;;;20.75;13.48;;;;;;;18.66;60.64;102087.31;6175480;28;20253;-47
2021/09/08 07:05:36;;;;;;;16.13;13.40;;;;;;;18.84;60.54;102080.75;6173079;28;20766;-47
2021/09/08 07:08:57;;;;;;;14.57;13.13;;;;;;;18.74;60.82;102087.13;6174665;28;20234;-51
2021/09/08 07:12:18;;;;;;;17.65;14.20;;;;;;;19.34;59.39;102081.28;6174816;28;20230;-53
2021/09/08 07:15:40;;;;;;;18.77;13.82;;;;;;;19.39;58.93;102082.06;6171721;28;20229;-48
2021/09/08 07:19:01;;;;;;;18.58;14.57;;;;;;;18.91;60.50;102074.44;6180532;28;20238;-47
2021/09/08 07:22:22;;;;;;;17.02;13.50;;;;;;;18.69;60.80;102077.56;6162272;28;20230;-46
2021/09/08 07:25:43;;;;;;;15.57;13.98;;;;;;;19.12;60.22;102069.56;6184278;28;20230;-46
2021/09/08 07:29:05;;;;;;;17.20;12.93;;;;;;;19.39;58.80;102068.84;6159440;28;20604;-50
2021/09/08 07:32:28;;;;;;;14.30;12.35;;;;;;;19.79;58.31;102065.16;6175333;28;21372;-47
2021/09/08 07:35:49;;;;;;;15.63;14.00;;;;;;;19.39;58.83;102066.19;6186744;28;20237;-50
2021/09/08 07:39:11;;;;;;;14.30;12.88;;;;;;;19.46;58.83;102059.84;6178302;28;20226;-49
2021/09/08 07:42:31;;;;;;;16.13;13.50;;;;;;;20.05;57.09;102068.84;6181080;28;20242;-50
2021/09/08 07:45:52;;;;;;;13.35;11.95;;;;;;;20.39;55.77;102057.25;6190865;28;20332;-50
2021/09/08 07:49:14;;;;;;;15.60;14.05;;;;;;;19.76;57.47;102067.03;6165095;28;20239;-49
2021/09/08 07:52:36;;;;;;;14.05;12.75;;;;;;;19.49;57.94;102066.81;6152495;28;20222;-48
2021/09/08 07:55:56;;;;;;;15.88;14.27;;;;;;;19.44;57.94;102066.06;6167325;28;20740;-47
2021/09/08 07:59:17;;;;;;;16.92;13.65;;;;;;;20.16;56.23;102053.53;6170776;28;20257;-49
2021/09/08 08:02:45;;;;;;;14.48;13.00;;;;;;;20.63;55.25;102050.38;6166795;28;20238;-51
2021/09/08 08:06:08;;;;;;;20.00;12.70;;;;;;;20.81;55.08;102043.63;6162915;28;20233;-47
2021/09/08 08:09:28;;;;;;;16.08;14.48;;;;;;;20.93;54.59;102053.78;6726202;22;20540;-46
2021/09/08 08:12:50;;;;;;;15.20;13.60;;;;;;;20.93;54.53;102040.56;6230617;28;20232;-51
2021/09/08 08:16:11;;;;;;;15.10;13.10;;;;;;;21.16;54.36;102041.56;6235418;28;20351;-53
2021/09/08 08:19:33;;;;;;;13.82;12.40;;;;;;;21.80;53.07;102031.34;6231933;28;20330;-51
2021/09/08 08:22:55;;;;;;;14.75;13.02;;;;;;;21.11;54.69;102038.19;6234527;28;20568;-47
2021/09/08 08:26:18;;;;;;;13.25;11.93;;;;;;;21.68;53.38;102045.06;6245548;28;21393;-52
2021/09/08 08:29:39;;;;;;;14.00;12.63;;;;;;;21.53;53.24;102037.66;6232295;28;20235;-49
2021/09/08 08:33:01;;;;;;;18.67;14.57;;;;;;;21.37;53.74;102030.22;6229994;28;20227;-53
2021/09/08 08:36:22;;;;;;;12.75;11.55;;;;;;;21.44;52.93;102028.25;6242241;28;20228;-49
2021/09/08 08:39:45;;;;;;;13.95;12.63;;;;;;;21.87;52.17;102025.81;6226874;28;20220;-50
2021/09/08 08:43:06;;;;;;;15.73;11.98;;;;;;;21.81;51.58;102034.91;6231435;28;20319;-53
2021/09/08 08:46:27;;;;;;;12.38;11.00;;;;;;;21.92;51.63;102034.47;6252275;28;20322;-48
2021/09/08 08:49:49;;;;;;;13.02;11.18;;;;;;;22.07;51.71;102028.59;6230362;28;20665;-50
2021/09/08 08:53:10;;;;;;;12.57;11.30;;;;;;;21.94;51.91;102028.19;6219227;28;20236;-45
2021/09/08 08:56:32;;;;;;;14.52;12.57;;;;;;;21.19;54.06;102025.56;6239163;28;20262;-46
2021/09/08 08:59:53;;;;;;;12.77;11.48;;;;;;;22.33;51.29;102024.09;6218643;28;20232;-52
2021/09/08 09:03:24;;;;;;;11.20;10.10;;;;;;;22.52;50.93;102019.78;6232479;28;20236;-47
2021/09/08 09:06:48;;;;;;;17.45;12.80;;;;;;;22.58;49.90;102019.53;6235369;28;20664;-46
2021/09/08 09:10:12;;;;;;;11.85;10.60;;;;;;;22.67;49.42;102022.75;6223297;28;20276;-46
2021/09/08 09:13:36;;;;;;;12.98;11.77;;;;;;;22.80;49.35;102023.97;6232243;28;20618;-50
2021/09/08 09:16:56;;;;;;;12.30;9.75;;;;;;;22.97;48.97;102021.50;6252887;28;20256;-46
2021/09/08 09:20:21;;;;;;;11.57;9.60;;;;;;;23.67;47.13;102014.06;6250967;28;20232;-48
2021/09/08 09:23:44;;;;;;;11.73;10.57;;;;;;;23.70;47.01;102011.22;6237636;28;20752;-51
2021/09/08 09:27:11;;;;;;;10.93;9.82;;;;;;;23.85;46.53;102008.84;6256955;28;20224;-47
2021/09/08 09:30:35;;;;;;;11.82;9.38;;;;;;;24.11;46.57;102005.81;6259498;28;20216;-49
2021/09/08 09:33:58;;;;;;;11.27;10.15;;;;;;;23.44;46.85;102008.88;6241162;28;20223;-51
2021/09/08 09:37:20;;;;;;;10.27;9.27;;;;;;;23.78;46.89;102009.13;6236003;28;20216;-49
2021/09/08 09:40:41;;;;;;;12.45;11.25;;;;;;;23.02;47.46;102004.50;6232029;28;20593;-51
2021/09/08 09:44:09;;;;;;;11.00;9.90;;;;;;;23.21;47.46;101994.81;6240169;28;20227;-48
2021/09/08 09:47:35;;;;;;;11.35;9.25;;;;;;;23.84;46.04;101985.84;6238588;28;20267;-52
2021/09/08 09:50:56;;;;;;;12.52;10.57;;;;;;;22.90;48.04;102006.72;6222768;28;20265;-49
2021/09/08 09:54:18;;;;;;;11.60;10.13;;;;;;;23.92;45.84;101986.34;6208814;28;20315;-46
2021/09/08 09:57:40;;;;;;;9.85;8.88;;;;;;;25.04;44.42;101990.66;6240669;28;20224;-49
2021/09/08 10:01:01;;;;;;;10.38;9.27;;;;;;;25.29;42.25;101985.78;6240224;28;20235;-48
2021/09/08 10:04:23;;;;;;;14.18;11.18;;;;;;;25.32;42.46;101985.66;6238730;28;20227;-52
2021/09/08 10:07:44;;;;;;;12.30;10.60;;;;;;;24.67;43.46;101977.41;6233846;28;20505;-50
2021/09/08 10:11:08;;;;;;;10.80;9.70;;;;;;;24.90;43.86;101976.25;6240820;28;20223;-50
2021/09/08 10:14:32;;;;;;;12.32;9.45;;;;;;;25.24;42.91;101977.19;6243893;28;20219;-49
2021/09/08 10:17:53;;;;;;;10.40;9.50;;;;;;;25.65;41.92;101973.22;6240766;28;20512;-47
2021/09/08 10:21:19;;;;;;;11.30;10.07;;;;;;;25.42;41.86;101966.50;6248802;28;20978;-48
2021/09/08 10:24:44;;;;;;;9.40;8.57;;;;;;;25.44;41.37;101970.81;6235609;28;20255;-50
2021/09/08 10:33:06;;;;;;;7.15;6.45;;;;;;;27.01;39.74;101947.72;6202408;28;20318;-57
2021/09/08 10:36:29;;;;;;;8.00;7.30;;;;;;;28.19;38.72;101931.38;6250774;28;20314;-58
2021/09/08 10:39:50;;;;;;;8.65;7.75;;;;;;;28.03;37.33;101937.75;6248473;28;20601;-58
2021/09/08 10:43:11;;;;;;;10.02;7.82;;;;;;;28.37;37.25;101932.84;6239073;28;20239;-57
2021/09/08 10:46:53;;;;;;;10.60;9.60;;;;;;;29.10;35.95;101923.44;6254947;28;20239;-59
2021/09/08 10:50:14;;;;;;;10.45;9.48;;;;;;;28.81;34.67;101918.28;6250704;28;20239;-58
2021/09/08 10:53:38;;;;;;;10.80;9.80;;;;;;;27.61;38.10;101920.81;6252575;28;20497;-57
2021/09/08 10:56:59;;;;;;;10.23;9.25;;;;;;;28.59;35.34;101920.69;6256879;28;20616;-59
2021/09/08 11:00:22;;;;;;;8.48;7.60;;;;;;;29.67;34.78;101915.84;6252249;28;20255;-56
2021/09/08 11:03:43;;;;;;;10.48;9.38;;;;;;;29.53;33.05;101914.19;6236707;28;20592;-59
2021/09/08 11:07:04;;;;;;;8.63;7.82;;;;;;;29.51;34.05;101905.34;6254766;28;20232;-59
2021/09/08 11:10:29;;;;;;;8.32;7.53;;;;;;;28.50;34.01;101905.22;6254097;28;20794;-50
2021/09/08 11:13:54;;;;;;;9.43;7.47;;;;;;;29.50;33.08;101903.66;6241147;28;20229;-47
2021/09/08 11:17:20;;;;;;;9.20;7.50;;;;;;;29.62;31.90;101902.75;6245450;28;20259;-49
2021/09/08 11:20:41;;;;;;;7.25;6.63;;;;;;;27.98;34.61;101894.38;6258455;28;20227;-50
2021/09/08 11:24:04;;;;;;;8.63;7.57;;;;;;;30.12;32.60;101895.50;6239667;28;20251;-49
2021/09/08 11:27:26;;;;;;;10.30;6.88;;;;;;;30.07;32.18;101896.81;6242219;28;20276;-46
2021/09/08 11:30:47;;;;;;;9.63;6.72;;;;;;;30.58;30.51;101894.72;6245936;28;20233;-47
2021/09/08 11:34:19;;;;;;;8.30;7.00;;;;;;;29.80;30.80;101887.19;6242514;28;20227;-49
2021/09/08 11:37:43;;;;;;;6.57;5.97;;;;;;;30.40;29.94;101886.25;6250250;28;20231;-48
2021/09/08 11:41:05;;;;;;;7.50;6.78;;;;;;;31.06;28.87;101885.66;6259249;28;20315;-49
2021/09/08 11:44:28;;;;;;;8.55;6.32;;;;;;;28.78;32.86;101885.47;6245371;28;20242;-49
2021/09/08 11:47:49;;;;;;;8.15;6.47;;;;;;;29.88;31.38;101890.16;6249623;28;20326;-51
2021/09/08 11:51:11;;;;;;;7.85;7.00;;;;;;;31.34;29.33;101878.06;6250265;28;20239;-50
2021/09/08 11:54:33;;;;;;;7.28;6.57;;;;;;;34.06;25.55;101870.81;6178024;28;20323;-48
2021/09/08 11:57:55;;;;;;;9.00;6.38;;;;;;;34.68;23.00;101863.22;6213027;28;20615;-52
2021/09/08 12:01:17;;;;;;;6.25;5.65;;;;;;;32.99;24.88;101873.22;6253833;28;20281;-53
2021/09/08 12:04:39;;;;;;;7.30;6.47;;;;;;;37.32;20.98;101867.38;6241869;28;20243;-49
2021/09/08 12:08:00;;;;;;;6.75;6.15;;;;;;;37.54;19.80;101860.44;6218540;28;20240;-47
2021/09/08 12:11:39;;;;;;;7.00;6.30;;;;;;;38.83;19.12;101861.63;6248267;28;20314;-47
2021/09/08 12:15:00;;;;;;;11.32;6.50;;;;;;;41.08;16.56;101856.81;6237204;28;20241;-51
2021/09/08 12:18:23;;;;;;;7.03;6.40;;;;;;;39.05;18.90;101849.16;6244622;28;20236;-50
2021/09/08 12:21:44;;;;;;;8.68;5.65;;;;;;;40.39;17.37;101851.66;6253446;28;20224;-51
2021/09/08 12:25:08;;;;;;;6.47;5.82;;;;;;;40.45;17.85;101850.91;6230637;28;20224;-53
2021/09/08 12:28:29;;;;;;;7.35;6.50;;;;;;;41.16;16.64;101836.75;6246724;28;20559;-52
2021/09/08 12:31:52;;;;;;;5.68;5.18;;;;;;;41.27;16.61;101830.81;6235846;28;20589;-50
2021/09/08 12:35:44;;;;;;;7.20;5.47;;;;;;;40.13;17.09;101829.22;6257565;28;20224;-48
2021/09/08 12:39:12;;;;;;;6.50;6.00;;;;;;;36.65;21.24;101831.94;6245096;28;20228;-50
2021/09/08 12:42:34;;;;;;;7.63;6.13;;;;;;;38.38;19.68;101822.28;6223758;28;20234;-48
2021/09/08 12:45:55;;;;;;;7.63;6.63;;;;;;;34.75;22.30;101822.91;6249897;28;20232;-47
2021/09/08 12:49:17;;;;;;;5.95;5.10;;;;;;;38.06;19.65;101821.28;6236704;28;20243;-50
2021/09/08 12:52:40;;;;;;;6.47;5.90;;;;;;;37.83;19.04;101824.69;6247031;28;20624;-50
2021/09/08 12:56:01;;;;;;;7.28;6.47;;;;;;;37.58;20.08;101815.63;6255929;28;20220;-50
2021/09/08 12:59:23;;;;;;;6.10;5.60;;;;;;;39.50;18.42;101803.13;6231655;28;20588;-50
2021/09/08 13:02:43;;;;;;;7.07;6.40;;;;;;;40.96;17.30;101801.84;6242675;28;20236;-48
2021/09/08 13:06:05;;;;;;;5.80;5.30;;;;;;;40.61;17.80;101801.59;6249638;28;20235;-52
2021/09/08 13:09:28;;;;;;;6.40;5.90;;;;;;;40.19;18.02;101794.84;6241821;28;20243;-50
2021/09/08 13:12:49;;;;;;;7.05;6.10;;;;;;;40.30;17.18;101791.66;6247884;28;20541;-47
2021/09/08 13:16:10;;;;;;;7.55;6.72;;;;;;;41.95;15.91;101773.84;6253343;28;20227;-50
2021/09/08 13:19:31;;;;;;;6.63;5.70;;;;;;;41.34;16.79;101774.34;6248696;28;20220;-51
2021/09/08 13:22:52;;;;;;;6.45;5.53;;;;;;;40.36;16.99;101776.47;6246548;28;20267;-48
2021/09/08 13:26:14;;;;;;;5.82;5.32;;;;;;;37.61;19.24;101771.00;6259374;28;20661;-48
2021/09/08 13:29:35;;;;;;;5.70;5.22;;;;;;;36.01;21.10;101771.63;6244953;28;20227;-54
2021/09/08 13:32:56;;;;;;;9.18;5.93;;;;;;;37.95;20.00;101768.09;6251866;28;20222;-46
2021/09/08 13:36:17;;;;;;;11.73;6.53;;;;;;;39.75;17.91;101754.72;6260259;28;20313;-46
2021/09/08 13:39:38;;;;;;;6.45;4.82;;;;;;;40.26;17.47;101748.59;6245015;28;20243;-50
2021/09/08 13:43:00;;;;;;;7.40;6.35;;;;;;;39.43;17.72;101747.63;6245412;28;20231;-50
2021/09/08 13:46:21;;;;;;;5.32;4.93;;;;;;;39.09;18.38;101746.19;6257939;28;20238;-53
2021/09/08 13:49:43;;;;;;;4.45;4.05;;;;;;;37.91;19.16;101739.56;6240035;28;20227;-50
2021/09/08 13:53:05;;;;;;;5.38;4.07;;;;;;;36.56;19.57;101736.03;6245940;28;20235;-53
2021/09/08 13:56:25;;;;;;;5.10;3.75;;;;;;;37.10;19.20;101743.03;6251393;28;20231;-51
2021/09/08 13:59:48;;;;;;;4.78;3.85;;;;;;;38.16;18.24;101734.97;6188470;28;20908;-53
2021/09/08 14:03:09;;;;;;;4.97;4.40;;;;;;;39.10;17.50;101723.34;6204508;28;20840;-49
2021/09/08 14:06:29;;;;;;;4.72;4.32;;;;;;;37.03;19.01;101724.72;6252305;28;20236;-52
2021/09/08 14:09:50;;;;;;;4.40;4.00;;;;;;;36.50;19.67;101723.13;6242701;28;20231;-47
2021/09/08 14:13:11;;;;;;;4.10;3.70;;;;;;;36.04;20.20;101719.81;6250476;28;20220;-50
2021/09/08 14:16:34;;;;;;;3.80;3.50;;;;;;;36.26;20.88;101713.88;6234043;28;20216;-48
2021/09/08 14:19:55;;;;;;;5.47;3.80;;;;;;;37.05;20.76;101706.41;6229155;28;20235;-51
2021/09/08 14:23:16;;;;;;;10.90;4.90;;;;;;;35.40;22.28;101705.59;6241873;28;20235;-50
2021/09/08 14:26:38;;;;;;;5.30;4.80;;;;;;;35.24;22.71;101700.88;6255854;28;20267;-51
2021/09/08 14:29:59;;;;;;;4.70;4.28;;;;;;;34.48;24.05;101691.19;6246070;28;20599;-46
2021/09/08 14:33:22;;;;;;;5.20;4.78;;;;;;;31.95;26.85;101695.28;6245810;28;20335;-51
2021/09/08 14:36:43;;;;;;;5.00;4.60;;;;;;;32.82;25.98;101680.50;6243822;28;20311;-50
2021/09/08 14:40:05;;;;;;;4.47;4.00;;;;;;;31.34;27.87;101685.16;6230692;28;20235;-49
2021/09/08 14:43:26;;;;;;;5.80;5.32;;;;;;;31.19;27.81;101689.13;6228980;28;20227;-49
2021/09/08 14:46:52;;;;;;;7.25;5.70;;;;;;;31.78;26.72;101683.25;6242055;28;20526;-50
2021/09/08 14:50:14;;;;;;;5.90;5.32;;;;;;;31.23;27.68;101677.13;6236976;28;20248;-49
2021/09/08 14:53:35;;;;;;;5.40;4.90;;;;;;;31.08;28.77;101673.03;6232288;28;20319;-49
2021/09/08 14:56:57;;;;;;;5.15;4.75;;;;;;;30.60;29.56;101663.47;6244038;28;20244;-48
2021/09/08 15:00:18;;;;;;;5.15;4.78;;;;;;;30.02;29.58;101664.41;6232138;28;20522;-49
2021/09/08 15:03:39;;;;;;;5.75;5.25;;;;;;;30.75;29.00;101656.00;6231819;28;20617;-45
2021/09/08 15:07:01;;;;;;;5.57;4.65;;;;;;;31.38;29.02;101658.84;6264423;28;20491;-47
2021/09/08 15:10:22;;;;;;;5.28;4.78;;;;;;;30.83;29.22;101652.69;6269281;28;20235;-50
2021/09/08 15:13:43;;;;;;;6.88;5.60;;;;;;;31.38;29.45;101648.09;6254363;28;20224;-51
2021/09/08 15:17:05;;;;;;;6.05;5.45;;;;;;;30.54;29.04;101642.47;6240883;28;20844;-51
2021/09/08 15:20:26;;;;;;;7.32;5.55;;;;;;;31.04;30.32;101632.09;6253154;28;20233;-45
2021/09/08 15:23:49;;;;;;;6.35;5.35;;;;;;;31.70;29.24;101631.03;6249478;28;20223;-51
2021/09/08 15:27:10;;;;;;;7.55;6.85;;;;;;;31.47;29.29;101636.59;6257746;28;20606;-49
2021/09/08 15:30:31;;;;;;;12.57;11.45;;;;;;;31.47;28.93;101619.59;6263034;28;20223;-48
2021/09/08 15:33:52;;;;;;;8.40;7.70;;;;;;;31.62;28.84;101626.34;6257940;28;20232;-46
2021/09/08 15:37:13;;;;;;;8.77;7.97;;;;;;;31.48;28.94;101632.91;6258423;28;20236;-48